sensor_id;sensor_type;location;lat;lon;timestamp;temperature;humidity
22426;DHT22;11380;50.822;15.790;2023-07-13T00:05:06;18.20;1.00
22426;DHT22;11380;50.822;15.790;2023-07-13T00:10:13;18.10;1.00
22426;DHT22;11380;50.822;15.790;2023-07-13T00:15:22;18.20;1.00
22426;DHT22;11380;50.822;15.790;2023-07-13T00:20:30;18.10;1.00
22426;DHT22;11380;50.822;15.790;2023-07-13T00:25:39;17.80;1.00
22426;DHT22;11380;50.822;15.790;2023-07-13T00:30:46;18.20;1.00
22426;DHT22;11380;50.822;15.790;2023-07-13T00:35:54;17.70;1.00
22426;DHT22;11380;50.822;15.790;2023-07-13T00:41:02;17.30;1.00
22426;DHT22;11380;50.822;15.790;2023-07-13T00:46:13;17.60;1.00
22426;DHT22;11380;50.822;15.790;2023-07-13T00:51:25;17.50;1.00
22426;DHT22;11380;50.822;15.790;2023-07-13T00:56:33;17.90;1.00
22426;DHT22;11380;50.822;15.790;2023-07-13T01:01:40;17.80;1.00
22426;DHT22;11380;50.822;15.790;2023-07-13T01:06:49;17.70;1.00
22426;DHT22;11380;50.822;15.790;2023-07-13T01:11:56;17.70;1.00
22426;DHT22;11380;50.822;15.790;2023-07-13T01:17:04;17.90;1.00
22426;DHT22;11380;50.822;15.790;2023-07-13T01:22:15;17.30;1.00
22426;DHT22;11380;50.822;15.790;2023-07-13T01:27:26;17.00;20.10
22426;DHT22;11380;50.822;15.790;2023-07-13T01:32:34;16.90;99.90
22426;DHT22;11380;50.822;15.790;2023-07-13T01:37:42;17.20;1.00
22426;DHT22;11380;50.822;15.790;2023-07-13T01:42:50;17.30;1.00
22426;DHT22;11380;50.822;15.790;2023-07-13T01:47:57;17.40;1.00
22426;DHT22;11380;50.822;15.790;2023-07-13T01:53:05;17.60;1.00
22426;DHT22;11380;50.822;15.790;2023-07-13T01:58:13;17.40;1.00
22426;DHT22;11380;50.822;15.790;2023-07-13T02:03:20;17.50;1.00
22426;DHT22;11380;50.822;15.790;2023-07-13T02:08:27;17.80;1.00
22426;DHT22;11380;50.822;15.790;2023-07-13T02:13:34;17.80;1.00
22426;DHT22;11380;50.822;15.790;2023-07-13T02:18:40;18.00;1.00
22426;DHT22;11380;50.822;15.790;2023-07-13T02:23:47;17.60;1.00
22426;DHT22;11380;50.822;15.790;2023-07-13T02:28:55;17.70;1.00
22426;DHT22;11380;50.822;15.790;2023-07-13T02:34:03;17.60;1.00
22426;DHT22;11380;50.822;15.790;2023-07-13T02:39:11;17.40;1.00
22426;DHT22;11380;50.822;15.790;2023-07-13T02:44:19;17.20;1.00
22426;DHT22;11380;50.822;15.790;2023-07-13T02:49:27;17.30;1.00
22426;DHT22;11380;50.822;15.790;2023-07-13T02:54:33;17.30;99.90
22426;DHT22;11380;50.822;15.790;2023-07-13T02:59:41;16.70;99.90
22426;DHT22;11380;50.822;15.790;2023-07-13T03:04:48;16.40;99.90
22426;DHT22;11380;50.822;15.790;2023-07-13T03:09:56;16.70;99.90
22426;DHT22;11380;50.822;15.790;2023-07-13T03:15:04;16.50;99.90
22426;DHT22;11380;50.822;15.790;2023-07-13T03:20:11;16.60;99.90
22426;DHT22;11380;50.822;15.790;2023-07-13T03:25:18;17.00;99.90
22426;DHT22;11380;50.822;15.790;2023-07-13T03:30:26;17.10;99.90
22426;DHT22;11380;50.822;15.790;2023-07-13T03:35:34;16.70;99.90
22426;DHT22;11380;50.822;15.790;2023-07-13T03:40:42;16.60;99.90
22426;DHT22;11380;50.822;15.790;2023-07-13T03:45:49;16.50;99.90
22426;DHT22;11380;50.822;15.790;2023-07-13T03:50:56;16.60;99.90
22426;DHT22;11380;50.822;15.790;2023-07-13T03:56:05;16.00;99.90
22426;DHT22;11380;50.822;15.790;2023-07-13T04:01:13;15.70;99.90
22426;DHT22;11380;50.822;15.790;2023-07-13T04:06:26;16.00;99.90
22426;DHT22;11380;50.822;15.790;2023-07-13T04:11:33;16.40;99.90
22426;DHT22;11380;50.822;15.790;2023-07-13T04:16:41;16.80;99.90
22426;DHT22;11380;50.822;15.790;2023-07-13T04:21:49;16.70;99.90
22426;DHT22;11380;50.822;15.790;2023-07-13T04:26:56;17.10;99.90
22426;DHT22;11380;50.822;15.790;2023-07-13T04:32:05;17.20;99.90
22426;DHT22;11380;50.822;15.790;2023-07-13T04:37:12;17.10;99.90
22426;DHT22;11380;50.822;15.790;2023-07-13T04:42:19;17.00;99.90
22426;DHT22;11380;50.822;15.790;2023-07-13T04:47:30;17.10;99.90
22426;DHT22;11380;50.822;15.790;2023-07-13T04:52:37;17.60;99.90
22426;DHT22;11380;50.822;15.790;2023-07-13T04:57:43;17.80;99.90
22426;DHT22;11380;50.822;15.790;2023-07-13T05:02:51;17.80;99.90
22426;DHT22;11380;50.822;15.790;2023-07-13T05:07:59;17.40;99.90
22426;DHT22;11380;50.822;15.790;2023-07-13T05:13:07;17.30;99.90
22426;DHT22;11380;50.822;15.790;2023-07-13T05:18:14;16.90;99.90
22426;DHT22;11380;50.822;15.790;2023-07-13T05:23:21;16.90;99.90
22426;DHT22;11380;50.822;15.790;2023-07-13T05:28:29;16.80;99.90
22426;DHT22;11380;50.822;15.790;2023-07-13T05:33:37;16.30;99.90
22426;DHT22;11380;50.822;15.790;2023-07-13T05:38:46;16.20;99.90
22426;DHT22;11380;50.822;15.790;2023-07-13T05:43:53;15.90;99.90
22426;DHT22;11380;50.822;15.790;2023-07-13T05:49:00;16.20;99.90
22426;DHT22;11380;50.822;15.790;2023-07-13T05:54:08;16.40;99.90
22426;DHT22;11380;50.822;15.790;2023-07-13T05:59:15;15.60;99.90
22426;DHT22;11380;50.822;15.790;2023-07-13T06:04:22;15.40;99.90
22426;DHT22;11380;50.822;15.790;2023-07-13T06:09:29;15.90;99.90
22426;DHT22;11380;50.822;15.790;2023-07-13T06:14:36;16.10;99.90
22426;DHT22;11380;50.822;15.790;2023-07-13T06:19:43;16.30;99.90
22426;DHT22;11380;50.822;15.790;2023-07-13T06:24:51;16.40;99.90
22426;DHT22;11380;50.822;15.790;2023-07-13T06:29:58;16.70;99.90
22426;DHT22;11380;50.822;15.790;2023-07-13T06:35:06;17.00;99.90
22426;DHT22;11380;50.822;15.790;2023-07-13T06:40:13;17.30;99.90
22426;DHT22;11380;50.822;15.790;2023-07-13T06:45:20;17.20;99.90
22426;DHT22;11380;50.822;15.790;2023-07-13T06:50:27;17.30;99.90
22426;DHT22;11380;50.822;15.790;2023-07-13T06:55:35;17.60;99.90
22426;DHT22;11380;50.822;15.790;2023-07-13T07:00:42;17.70;99.90
22426;DHT22;11380;50.822;15.790;2023-07-13T07:05:49;18.00;99.90
22426;DHT22;11380;50.822;15.790;2023-07-13T07:10:57;18.40;99.90
22426;DHT22;11380;50.822;15.790;2023-07-13T07:16:04;18.20;99.90
22426;DHT22;11380;50.822;15.790;2023-07-13T07:21:12;18.30;99.90
22426;DHT22;11380;50.822;15.790;2023-07-13T07:26:19;18.90;99.90
22426;DHT22;11380;50.822;15.790;2023-07-13T07:31:28;19.10;1.00
22426;DHT22;11380;50.822;15.790;2023-07-13T07:36:36;19.20;1.00
22426;DHT22;11380;50.822;15.790;2023-07-13T07:41:44;18.40;1.00
22426;DHT22;11380;50.822;15.790;2023-07-13T07:46:53;18.50;1.00
22426;DHT22;11380;50.822;15.790;2023-07-13T07:51:59;18.80;1.00
22426;DHT22;11380;50.822;15.790;2023-07-13T07:57:06;19.00;1.00
22426;DHT22;11380;50.822;15.790;2023-07-13T08:02:16;19.20;1.00
22426;DHT22;11380;50.822;15.790;2023-07-13T08:07:24;19.10;1.00
22426;DHT22;11380;50.822;15.790;2023-07-13T08:12:36;19.40;1.00
22426;DHT22;11380;50.822;15.790;2023-07-13T08:17:45;19.90;1.00
22426;DHT22;11380;50.822;15.790;2023-07-13T08:22:53;19.80;1.00
22426;DHT22;11380;50.822;15.790;2023-07-13T08:28:00;20.20;1.00
22426;DHT22;11380;50.822;15.790;2023-07-13T08:33:08;20.50;1.00
22426;DHT22;11380;50.822;15.790;2023-07-13T08:38:16;20.70;1.00
22426;DHT22;11380;50.822;15.790;2023-07-13T08:43:26;20.80;1.00
22426;DHT22;11380;50.822;15.790;2023-07-13T08:49:02;21.50;99.90
22426;DHT22;11380;50.822;15.790;2023-07-13T08:59:28;22.20;99.90
22426;DHT22;11380;50.822;15.790;2023-07-13T09:10:12;21.70;99.90
22426;DHT22;11380;50.822;15.790;2023-07-13T09:15:40;21.60;99.90
22426;DHT22;11380;50.822;15.790;2023-07-13T09:20:56;22.00;99.90
22426;DHT22;11380;50.822;15.790;2023-07-13T09:26:18;22.30;99.90
22426;DHT22;11380;50.822;15.790;2023-07-13T09:31:36;22.00;99.90
22426;DHT22;11380;50.822;15.790;2023-07-13T09:36:43;22.60;99.90
22426;DHT22;11380;50.822;15.790;2023-07-13T09:47:29;22.00;99.90
22426;DHT22;11380;50.822;15.790;2023-07-13T09:52:45;22.00;99.90
22426;DHT22;11380;50.822;15.790;2023-07-13T09:57:53;22.70;99.90
22426;DHT22;11380;50.822;15.790;2023-07-13T10:03:09;22.70;99.90
22426;DHT22;11380;50.822;15.790;2023-07-13T10:08:28;23.40;99.90
22426;DHT22;11380;50.822;15.790;2023-07-13T10:13:42;23.80;99.90
22426;DHT22;11380;50.822;15.790;2023-07-13T10:18:56;23.20;99.90
22426;DHT22;11380;50.822;15.790;2023-07-13T10:24:25;23.50;99.90
22426;DHT22;11380;50.822;15.790;2023-07-13T10:29:30;23.80;99.90
22426;DHT22;11380;50.822;15.790;2023-07-13T10:34:41;23.60;99.90
22426;DHT22;11380;50.822;15.790;2023-07-13T10:39:51;23.80;99.90
22426;DHT22;11380;50.822;15.790;2023-07-13T10:45:00;24.30;99.90
22426;DHT22;11380;50.822;15.790;2023-07-13T10:50:13;25.00;99.90
22426;DHT22;11380;50.822;15.790;2023-07-13T10:55:54;24.50;99.90
22426;DHT22;11380;50.822;15.790;2023-07-13T11:01:09;24.00;99.90
22426;DHT22;11380;50.822;15.790;2023-07-13T11:11:40;23.90;99.90
22426;DHT22;11380;50.822;15.790;2023-07-13T11:16:47;24.70;99.90
22426;DHT22;11380;50.822;15.790;2023-07-13T11:27:36;25.60;99.90
22426;DHT22;11380;50.822;15.790;2023-07-13T11:32:52;25.70;99.90
22426;DHT22;11380;50.822;15.790;2023-07-13T11:38:20;26.10;99.90
22426;DHT22;11380;50.822;15.790;2023-07-13T11:43:28;26.10;99.30
22426;DHT22;11380;50.822;15.790;2023-07-13T11:48:35;26.20;99.90
22426;DHT22;11380;50.822;15.790;2023-07-13T11:53:45;25.90;98.30
22426;DHT22;11380;50.822;15.790;2023-07-13T11:58:56;25.60;99.90
22426;DHT22;11380;50.822;15.790;2023-07-13T12:04:04;24.90;98.40
22426;DHT22;11380;50.822;15.790;2023-07-13T12:09:13;25.20;97.30
22426;DHT22;11380;50.822;15.790;2023-07-13T12:14:27;25.90;96.20
22426;DHT22;11380;50.822;15.790;2023-07-13T12:19:34;26.20;99.90
22426;DHT22;11380;50.822;15.790;2023-07-13T12:24:43;25.30;98.50
22426;DHT22;11380;50.822;15.790;2023-07-13T12:29:56;25.00;96.40
22426;DHT22;11380;50.822;15.790;2023-07-13T12:35:15;25.30;96.40
22426;DHT22;11380;50.822;15.790;2023-07-13T12:40:31;25.70;95.80
22426;DHT22;11380;50.822;15.790;2023-07-13T12:51:13;25.70;95.70
22426;DHT22;11380;50.822;15.790;2023-07-13T12:56:26;25.70;99.10
22426;DHT22;11380;50.822;15.790;2023-07-13T13:01:36;25.00;98.20
22426;DHT22;11380;50.822;15.790;2023-07-13T13:06:42;25.50;99.50
22426;DHT22;11380;50.822;15.790;2023-07-13T13:11:50;24.90;98.30
22426;DHT22;11380;50.822;15.790;2023-07-13T13:16:57;25.80;97.00
22426;DHT22;11380;50.822;15.790;2023-07-13T13:22:07;25.70;95.70
22426;DHT22;11380;50.822;15.790;2023-07-13T13:27:19;25.50;96.70
22426;DHT22;11380;50.822;15.790;2023-07-13T13:32:27;25.90;95.80
22426;DHT22;11380;50.822;15.790;2023-07-13T13:37:34;26.10;96.30
22426;DHT22;11380;50.822;15.790;2023-07-13T13:42:41;26.00;95.40
22426;DHT22;11380;50.822;15.790;2023-07-13T13:47:48;25.80;96.10
22426;DHT22;11380;50.822;15.790;2023-07-13T13:52:55;25.20;95.70
22426;DHT22;11380;50.822;15.790;2023-07-13T14:04:22;26.30;95.40
22426;DHT22;11380;50.822;15.790;2023-07-13T14:09:29;25.50;97.70
22426;DHT22;11380;50.822;15.790;2023-07-13T14:14:37;24.50;96.40
22426;DHT22;11380;50.822;15.790;2023-07-13T14:19:45;24.40;97.20
22426;DHT22;11380;50.822;15.790;2023-07-13T14:24:53;24.10;97.50
22426;DHT22;11380;50.822;15.790;2023-07-13T14:30:02;24.10;97.90
22426;DHT22;11380;50.822;15.790;2023-07-13T14:35:13;23.90;99.50
22426;DHT22;11380;50.822;15.790;2023-07-13T14:40:28;24.20;99.10
22426;DHT22;11380;50.822;15.790;2023-07-13T14:45:37;23.80;98.60
22426;DHT22;11380;50.822;15.790;2023-07-13T14:50:57;24.60;97.90
22426;DHT22;11380;50.822;15.790;2023-07-13T14:56:11;24.80;95.60
22426;DHT22;11380;50.822;15.790;2023-07-13T15:01:17;25.10;95.80
22426;DHT22;11380;50.822;15.790;2023-07-13T15:06:24;25.10;95.60
22426;DHT22;11380;50.822;15.790;2023-07-13T15:11:31;25.30;95.40
22426;DHT22;11380;50.822;15.790;2023-07-13T15:16:39;24.90;93.50
22426;DHT22;11380;50.822;15.790;2023-07-13T15:21:47;25.40;96.40
22426;DHT22;11380;50.822;15.790;2023-07-13T15:26:54;25.10;96.20
22426;DHT22;11380;50.822;15.790;2023-07-13T15:32:00;24.90;94.40
22426;DHT22;11380;50.822;15.790;2023-07-13T15:37:15;25.00;95.90
22426;DHT22;11380;50.822;15.790;2023-07-13T15:42:23;24.50;94.50
22426;DHT22;11380;50.822;15.790;2023-07-13T15:47:30;24.20;95.50
22426;DHT22;11380;50.822;15.790;2023-07-13T15:52:38;24.10;95.40
22426;DHT22;11380;50.822;15.790;2023-07-13T15:57:51;24.30;96.20
22426;DHT22;11380;50.822;15.790;2023-07-13T16:02:59;24.00;94.80
22426;DHT22;11380;50.822;15.790;2023-07-13T16:08:06;24.50;94.20
22426;DHT22;11380;50.822;15.790;2023-07-13T16:13:18;24.50;93.90
22426;DHT22;11380;50.822;15.790;2023-07-13T16:18:26;24.30;94.70
22426;DHT22;11380;50.822;15.790;2023-07-13T16:23:33;24.60;94.90
22426;DHT22;11380;50.822;15.790;2023-07-13T16:28:43;24.90;95.30
22426;DHT22;11380;50.822;15.790;2023-07-13T16:33:49;24.40;93.30
22426;DHT22;11380;50.822;15.790;2023-07-13T16:38:57;24.10;94.70
22426;DHT22;11380;50.822;15.790;2023-07-13T16:44:09;23.80;95.10
22426;DHT22;11380;50.822;15.790;2023-07-13T16:49:29;23.80;96.30
22426;DHT22;11380;50.822;15.790;2023-07-13T16:54:38;23.70;97.90
22426;DHT22;11380;50.822;15.790;2023-07-13T16:59:46;23.40;96.50
22426;DHT22;11380;50.822;15.790;2023-07-13T17:04:53;23.60;97.90
22426;DHT22;11380;50.822;15.790;2023-07-13T17:10:01;23.60;98.90
22426;DHT22;11380;50.822;15.790;2023-07-13T17:15:10;23.40;99.40
22426;DHT22;11380;50.822;15.790;2023-07-13T17:20:25;23.20;99.90
22426;DHT22;11380;50.822;15.790;2023-07-13T17:25:29;22.60;99.90
22426;DHT22;11380;50.822;15.790;2023-07-13T17:30:40;22.30;99.90
22426;DHT22;11380;50.822;15.790;2023-07-13T17:35:48;22.20;96.50
22426;DHT22;11380;50.822;15.790;2023-07-13T17:40:56;22.10;95.60
22426;DHT22;11380;50.822;15.790;2023-07-13T17:46:10;22.00;97.20
22426;DHT22;11380;50.822;15.790;2023-07-13T17:51:21;22.00;96.60
22426;DHT22;11380;50.822;15.790;2023-07-13T17:56:32;22.00;96.80
22426;DHT22;11380;50.822;15.790;2023-07-13T18:01:39;22.00;98.40
22426;DHT22;11380;50.822;15.790;2023-07-13T18:06:48;22.10;98.60
22426;DHT22;11380;50.822;15.790;2023-07-13T18:12:01;22.00;98.70
22426;DHT22;11380;50.822;15.790;2023-07-13T18:17:10;21.90;97.20
22426;DHT22;11380;50.822;15.790;2023-07-13T18:22:19;21.90;99.10
22426;DHT22;11380;50.822;15.790;2023-07-13T18:27:28;21.70;99.20
22426;DHT22;11380;50.822;15.790;2023-07-13T18:32:38;21.70;99.70
22426;DHT22;11380;50.822;15.790;2023-07-13T18:37:46;21.50;99.80
22426;DHT22;11380;50.822;15.790;2023-07-13T18:42:54;21.40;83.30
22426;DHT22;11380;50.822;15.790;2023-07-13T18:48:01;21.00;1.00
22426;DHT22;11380;50.822;15.790;2023-07-13T18:53:13;20.80;1.00
22426;DHT22;11380;50.822;15.790;2023-07-13T18:58:22;21.10;22.50
22426;DHT22;11380;50.822;15.790;2023-07-13T19:03:33;20.90;99.90
22426;DHT22;11380;50.822;15.790;2023-07-13T19:08:42;20.90;99.90
22426;DHT22;11380;50.822;15.790;2023-07-13T19:13:49;20.50;1.00
22426;DHT22;11380;50.822;15.790;2023-07-13T19:18:58;20.60;1.00
22426;DHT22;11380;50.822;15.790;2023-07-13T19:24:19;20.20;1.00
22426;DHT22;11380;50.822;15.790;2023-07-13T19:29:28;19.60;1.00
22426;DHT22;11380;50.822;15.790;2023-07-13T19:34:36;19.70;1.00
22426;DHT22;11380;50.822;15.790;2023-07-13T19:39:44;19.50;6.20
22426;DHT22;11380;50.822;15.790;2023-07-13T19:44:55;19.60;46.80
22426;DHT22;11380;50.822;15.790;2023-07-13T19:50:03;19.40;99.90
22426;DHT22;11380;50.822;15.790;2023-07-13T19:55:12;19.30;99.90
22426;DHT22;11380;50.822;15.790;2023-07-13T20:00:23;19.30;99.90
22426;DHT22;11380;50.822;15.790;2023-07-13T20:05:33;19.10;99.90
22426;DHT22;11380;50.822;15.790;2023-07-13T20:10:43;18.70;99.90
22426;DHT22;11380;50.822;15.790;2023-07-13T20:15:51;18.70;99.90
22426;DHT22;11380;50.822;15.790;2023-07-13T20:20:58;18.50;99.90
22426;DHT22;11380;50.822;15.790;2023-07-13T20:26:06;18.50;99.90
22426;DHT22;11380;50.822;15.790;2023-07-13T20:31:14;18.40;99.90
22426;DHT22;11380;50.822;15.790;2023-07-13T20:36:22;18.20;99.90
22426;DHT22;11380;50.822;15.790;2023-07-13T20:41:29;17.50;99.90
22426;DHT22;11380;50.822;15.790;2023-07-13T20:46:36;17.00;1.00
22426;DHT22;11380;50.822;15.790;2023-07-13T20:51:44;17.20;99.90
22426;DHT22;11380;50.822;15.790;2023-07-13T20:56:55;17.00;1.00
22426;DHT22;11380;50.822;15.790;2023-07-13T21:02:03;17.10;1.00
22426;DHT22;11380;50.822;15.790;2023-07-13T21:07:19;17.10;1.00
22426;DHT22;11380;50.822;15.790;2023-07-13T21:12:27;16.90;99.90
22426;DHT22;11380;50.822;15.790;2023-07-13T21:17:35;16.70;1.00
22426;DHT22;11380;50.822;15.790;2023-07-13T21:22:42;16.60;1.00
22426;DHT22;11380;50.822;15.790;2023-07-13T21:27:53;16.60;1.00
22426;DHT22;11380;50.822;15.790;2023-07-13T21:33:02;16.30;1.00
22426;DHT22;11380;50.822;15.790;2023-07-13T21:38:19;15.90;1.00
22426;DHT22;11380;50.822;15.790;2023-07-13T21:43:33;16.00;1.00
22426;DHT22;11380;50.822;15.790;2023-07-13T21:48:40;16.30;1.00
22426;DHT22;11380;50.822;15.790;2023-07-13T21:53:49;16.40;1.00
22426;DHT22;11380;50.822;15.790;2023-07-13T21:58:56;16.50;1.00
22426;DHT22;11380;50.822;15.790;2023-07-13T22:04:08;16.30;1.00
22426;DHT22;11380;50.822;15.790;2023-07-13T22:09:17;16.30;1.00
22426;DHT22;11380;50.822;15.790;2023-07-13T22:14:26;16.20;1.00
22426;DHT22;11380;50.822;15.790;2023-07-13T22:19:33;16.20;1.00
22426;DHT22;11380;50.822;15.790;2023-07-13T22:24:40;16.30;1.00
22426;DHT22;11380;50.822;15.790;2023-07-13T22:29:48;16.30;1.00
22426;DHT22;11380;50.822;15.790;2023-07-13T22:34:55;16.10;1.00
22426;DHT22;11380;50.822;15.790;2023-07-13T22:40:10;16.10;1.00
22426;DHT22;11380;50.822;15.790;2023-07-13T22:45:19;16.10;1.00
22426;DHT22;11380;50.822;15.790;2023-07-13T22:50:27;16.00;1.00
22426;DHT22;11380;50.822;15.790;2023-07-13T22:55:34;15.50;1.00
22426;DHT22;11380;50.822;15.790;2023-07-13T23:00:42;15.30;1.00
22426;DHT22;11380;50.822;15.790;2023-07-13T23:05:49;15.50;1.00
22426;DHT22;11380;50.822;15.790;2023-07-13T23:10:56;15.50;1.00
22426;DHT22;11380;50.822;15.790;2023-07-13T23:16:08;15.20;1.00
22426;DHT22;11380;50.822;15.790;2023-07-13T23:21:17;14.80;1.00
22426;DHT22;11380;50.822;15.790;2023-07-13T23:26:26;14.90;1.00
22426;DHT22;11380;50.822;15.790;2023-07-13T23:31:33;14.80;1.00
22426;DHT22;11380;50.822;15.790;2023-07-13T23:36:41;14.70;1.00
22426;DHT22;11380;50.822;15.790;2023-07-13T23:41:50;14.50;1.00
22426;DHT22;11380;50.822;15.790;2023-07-13T23:46:56;14.60;1.00
22426;DHT22;11380;50.822;15.790;2023-07-13T23:52:08;14.80;1.00
22426;DHT22;11380;50.822;15.790;2023-07-13T23:57:15;14.80;1.00
